sensor_id;sensor_type;location;lat;lon;timestamp;noise_LAeq;noise_LA_min;noise_LA_max;noise_LA01;noise_LA95
65079;Laerm;52655;52.218;5.964;2023-07-20T00:02:51;30.1;28.9;33.6;;
65079;Laerm;52655;52.218;5.964;2023-07-20T00:05:53;32.2;28.8;40.6;;
65079;Laerm;52655;52.218;5.964;2023-07-20T00:08:54;32.5;28.8;47.8;;
65079;Laerm;52655;52.218;5.964;2023-07-20T00:11:55;30.5;28.8;34.5;;
65079;Laerm;52655;52.218;5.964;2023-07-20T00:14:56;32.2;28.4;48.0;;
65079;Laerm;52655;52.218;5.964;2023-07-20T00:20:58;29.9;28.2;33.9;;
65079;Laerm;52655;52.218;5.964;2023-07-20T00:23:59;29.8;28.3;34.8;;
65079;Laerm;52655;52.218;5.964;2023-07-20T00:27:00;29.0;28.0;30.5;;
65079;Laerm;52655;52.218;5.964;2023-07-20T00:30:01;34.2;28.6;47.0;;
65079;Laerm;52655;52.218;5.964;2023-07-20T00:33:02;33.0;29.1;44.9;;
65079;Laerm;52655;52.218;5.964;2023-07-20T00:36:03;29.7;28.5;32.6;;
65079;Laerm;52655;52.218;5.964;2023-07-20T00:39:04;30.4;28.2;38.3;;
65079;Laerm;52655;52.218;5.964;2023-07-20T00:42:05;36.0;28.3;55.8;;
65079;Laerm;52655;52.218;5.964;2023-07-20T00:45:06;30.8;28.3;44.2;;
65079;Laerm;52655;52.218;5.964;2023-07-20T00:48:08;32.4;28.9;51.5;;
65079;Laerm;52655;52.218;5.964;2023-07-20T00:51:08;30.6;28.6;36.1;;
65079;Laerm;52655;52.218;5.964;2023-07-20T00:54:09;30.7;28.6;36.0;;
65079;Laerm;52655;52.218;5.964;2023-07-20T00:57:10;30.4;28.6;34.6;;
65079;Laerm;52655;52.218;5.964;2023-07-20T01:00:11;29.7;28.6;33.1;;
65079;Laerm;52655;52.218;5.964;2023-07-20T01:03:12;29.9;28.7;34.8;;
65079;Laerm;52655;52.218;5.964;2023-07-20T01:06:14;30.2;28.9;33.5;;
65079;Laerm;52655;52.218;5.964;2023-07-20T01:09:28;29.9;28.6;34.6;;
65079;Laerm;52655;52.218;5.964;2023-07-20T01:12:18;30.3;28.5;37.5;;
65079;Laerm;52655;52.218;5.964;2023-07-20T01:15:16;30.4;28.8;35.3;;
65079;Laerm;52655;52.218;5.964;2023-07-20T01:18:18;30.0;28.4;33.7;;
65079;Laerm;52655;52.218;5.964;2023-07-20T01:21:31;30.4;28.8;43.1;;
65079;Laerm;52655;52.218;5.964;2023-07-20T01:25:33;31.9;29.5;38.3;;
65079;Laerm;52655;52.218;5.964;2023-07-20T01:29:02;30.7;28.6;33.9;;
65079;Laerm;52655;52.218;5.964;2023-07-20T01:31:57;30.2;28.9;34.6;;
65079;Laerm;52655;52.218;5.964;2023-07-20T01:33:24;30.7;29.1;33.4;;
65079;Laerm;52655;52.218;5.964;2023-07-20T01:36:24;30.7;28.8;35.3;;
65079;Laerm;52655;52.218;5.964;2023-07-20T01:39:25;30.2;28.5;34.0;;
65079;Laerm;52655;52.218;5.964;2023-07-20T01:42:26;30.0;28.4;39.2;;
65079;Laerm;52655;52.218;5.964;2023-07-20T01:45:27;33.9;28.8;48.8;;
65079;Laerm;52655;52.218;5.964;2023-07-20T01:48:28;29.8;28.6;31.9;;
65079;Laerm;52655;52.218;5.964;2023-07-20T01:51:29;29.7;28.3;35.2;;
65079;Laerm;52655;52.218;5.964;2023-07-20T01:54:30;30.4;28.5;36.4;;
65079;Laerm;52655;52.218;5.964;2023-07-20T01:57:31;33.2;28.8;42.4;;
65079;Laerm;52655;52.218;5.964;2023-07-20T02:00:32;30.9;29.3;36.0;;
65079;Laerm;52655;52.218;5.964;2023-07-20T02:03:33;29.9;28.4;35.8;;
65079;Laerm;52655;52.218;5.964;2023-07-20T02:06:34;29.5;28.3;32.6;;
65079;Laerm;52655;52.218;5.964;2023-07-20T02:09:35;30.5;28.8;39.2;;
65079;Laerm;52655;52.218;5.964;2023-07-20T02:12:36;32.1;28.4;48.0;;
65079;Laerm;52655;52.218;5.964;2023-07-20T02:15:37;30.0;28.6;32.3;;
65079;Laerm;52655;52.218;5.964;2023-07-20T02:18:39;30.5;28.6;34.2;;
65079;Laerm;52655;52.218;5.964;2023-07-20T02:21:40;29.6;28.6;34.8;;
65079;Laerm;52655;52.218;5.964;2023-07-20T02:27:42;30.9;28.3;35.0;;
65079;Laerm;52655;52.218;5.964;2023-07-20T02:30:43;33.4;29.0;42.0;;
65079;Laerm;52655;52.218;5.964;2023-07-20T02:33:44;34.3;30.0;42.8;;
65079;Laerm;52655;52.218;5.964;2023-07-20T02:36:45;31.8;29.9;34.4;;
65079;Laerm;52655;52.218;5.964;2023-07-20T02:39:46;33.7;30.3;39.6;;
65079;Laerm;52655;52.218;5.964;2023-07-20T02:42:47;31.3;29.5;40.5;;
65079;Laerm;52655;52.218;5.964;2023-07-20T02:45:48;32.1;29.9;37.7;;
65079;Laerm;52655;52.218;5.964;2023-07-20T02:48:49;32.3;29.8;37.9;;
65079;Laerm;52655;52.218;5.964;2023-07-20T02:53:46;31.4;29.8;34.6;;
65079;Laerm;52655;52.218;5.964;2023-07-20T02:56:47;32.1;30.1;37.0;;
65079;Laerm;52655;52.218;5.964;2023-07-20T02:59:48;31.7;29.8;37.5;;
65079;Laerm;52655;52.218;5.964;2023-07-20T03:02:49;31.7;29.9;36.4;;
65079;Laerm;52655;52.218;5.964;2023-07-20T03:05:50;33.3;31.1;39.2;;
65079;Laerm;52655;52.218;5.964;2023-07-20T03:08:51;34.3;31.5;40.4;;
65079;Laerm;52655;52.218;5.964;2023-07-20T03:11:52;37.3;30.5;54.9;;
65079;Laerm;52655;52.218;5.964;2023-07-20T03:14:53;33.5;30.9;39.5;;
65079;Laerm;52655;52.218;5.964;2023-07-20T03:17:54;35.8;31.1;52.1;;
65079;Laerm;52655;52.218;5.964;2023-07-20T03:20:55;34.3;32.0;37.2;;
65079;Laerm;52655;52.218;5.964;2023-07-20T03:23:56;34.6;31.8;41.9;;
65079;Laerm;52655;52.218;5.964;2023-07-20T03:26:57;34.0;31.1;40.4;;
65079;Laerm;52655;52.218;5.964;2023-07-20T03:29:58;34.3;32.0;45.7;;
65079;Laerm;52655;52.218;5.964;2023-07-20T03:32:59;34.7;31.9;41.7;;
65079;Laerm;52655;52.218;5.964;2023-07-20T03:36:00;39.1;32.7;55.6;;
65079;Laerm;52655;52.218;5.964;2023-07-20T03:39:01;36.2;32.2;48.6;;
65079;Laerm;52655;52.218;5.964;2023-07-20T03:42:02;35.7;31.7;48.4;;
65079;Laerm;52655;52.218;5.964;2023-07-20T03:45:03;38.7;32.1;58.0;;
65079;Laerm;52655;52.218;5.964;2023-07-20T03:48:04;39.3;33.9;51.5;;
65079;Laerm;52655;52.218;5.964;2023-07-20T03:51:05;35.6;32.9;39.7;;
65079;Laerm;52655;52.218;5.964;2023-07-20T03:54:06;36.4;32.8;48.1;;
65079;Laerm;52655;52.218;5.964;2023-07-20T03:57:07;38.5;33.5;53.2;;
65079;Laerm;52655;52.218;5.964;2023-07-20T04:00:09;37.4;33.0;52.8;;
65079;Laerm;52655;52.218;5.964;2023-07-20T04:03:10;37.8;32.8;49.2;;
65079;Laerm;52655;52.218;5.964;2023-07-20T04:06:11;39.0;33.0;52.3;;
65079;Laerm;52655;52.218;5.964;2023-07-20T04:09:12;37.6;33.6;50.0;;
65079;Laerm;52655;52.218;5.964;2023-07-20T04:12:13;38.0;34.4;49.4;;
65079;Laerm;52655;52.218;5.964;2023-07-20T04:15:14;37.6;34.0;47.6;;
65079;Laerm;52655;52.218;5.964;2023-07-20T04:18:15;39.1;33.2;54.2;;
65079;Laerm;52655;52.218;5.964;2023-07-20T04:21:16;38.3;34.1;53.4;;
65079;Laerm;52655;52.218;5.964;2023-07-20T04:24:17;40.8;33.6;55.1;;
65079;Laerm;52655;52.218;5.964;2023-07-20T04:27:18;38.0;34.1;50.5;;
65079;Laerm;52655;52.218;5.964;2023-07-20T04:30:19;40.7;34.6;57.5;;
65079;Laerm;52655;52.218;5.964;2023-07-20T04:33:20;40.2;34.1;53.2;;
65079;Laerm;52655;52.218;5.964;2023-07-20T04:36:21;40.2;35.1;54.9;;
65079;Laerm;52655;52.218;5.964;2023-07-20T04:39:22;41.6;35.8;51.9;;
65079;Laerm;52655;52.218;5.964;2023-07-20T04:42:23;41.6;35.7;62.0;;
65079;Laerm;52655;52.218;5.964;2023-07-20T04:45:24;41.3;36.2;53.1;;
65079;Laerm;52655;52.218;5.964;2023-07-20T04:51:26;44.9;37.7;55.5;;
65079;Laerm;52655;52.218;5.964;2023-07-20T04:54:27;43.0;36.6;52.1;;
65079;Laerm;52655;52.218;5.964;2023-07-20T04:57:28;43.5;37.8;54.1;;
65079;Laerm;52655;52.218;5.964;2023-07-20T05:00:29;43.5;36.7;55.1;;
65079;Laerm;52655;52.218;5.964;2023-07-20T05:03:30;42.3;36.5;54.0;;
65079;Laerm;52655;52.218;5.964;2023-07-20T05:06:31;43.2;36.2;55.9;;
65079;Laerm;52655;52.218;5.964;2023-07-20T05:09:33;41.0;36.0;54.1;;
65079;Laerm;52655;52.218;5.964;2023-07-20T05:12:34;41.7;34.5;55.6;;
65079;Laerm;52655;52.218;5.964;2023-07-20T05:15:35;43.7;36.0;58.5;;
65079;Laerm;52655;52.218;5.964;2023-07-20T05:18:36;42.5;35.1;56.6;;
65079;Laerm;52655;52.218;5.964;2023-07-20T05:21:37;44.0;36.0;56.7;;
65079;Laerm;52655;52.218;5.964;2023-07-20T05:24:38;41.4;35.6;51.6;;
65079;Laerm;52655;52.218;5.964;2023-07-20T05:30:40;45.6;36.7;56.5;;
65079;Laerm;52655;52.218;5.964;2023-07-20T05:33:41;44.7;36.0;56.7;;
65079;Laerm;52655;52.218;5.964;2023-07-20T05:36:42;43.3;34.9;52.1;;
65079;Laerm;52655;52.218;5.964;2023-07-20T05:39:43;45.2;35.4;57.6;;
65079;Laerm;52655;52.218;5.964;2023-07-20T05:42:44;44.3;35.9;59.6;;
65079;Laerm;52655;52.218;5.964;2023-07-20T05:45:45;45.6;35.1;54.4;;
65079;Laerm;52655;52.218;5.964;2023-07-20T05:48:46;46.4;35.7;59.8;;
65079;Laerm;52655;52.218;5.964;2023-07-20T05:51:47;43.8;36.0;56.2;;
65079;Laerm;52655;52.218;5.964;2023-07-20T05:54:48;48.7;32.9;60.7;;
65079;Laerm;52655;52.218;5.964;2023-07-20T05:57:49;48.5;40.0;58.7;;
65079;Laerm;52655;52.218;5.964;2023-07-20T06:00:50;46.4;39.6;54.0;;
65079;Laerm;52655;52.218;5.964;2023-07-20T06:03:51;47.4;41.0;58.6;;
65079;Laerm;52655;52.218;5.964;2023-07-20T06:06:52;48.1;39.9;57.3;;
65079;Laerm;52655;52.218;5.964;2023-07-20T06:09:53;47.9;35.3;60.0;;
65079;Laerm;52655;52.218;5.964;2023-07-20T06:12:54;41.6;33.8;50.7;;
65079;Laerm;52655;52.218;5.964;2023-07-20T06:15:55;42.5;33.0;56.4;;
65079;Laerm;52655;52.218;5.964;2023-07-20T06:18:57;41.6;32.9;51.1;;
65079;Laerm;52655;52.218;5.964;2023-07-20T06:21:58;42.6;33.1;57.8;;
65079;Laerm;52655;52.218;5.964;2023-07-20T06:24:59;41.5;34.5;53.4;;
65079;Laerm;52655;52.218;5.964;2023-07-20T06:28:00;42.4;33.4;51.8;;
65079;Laerm;52655;52.218;5.964;2023-07-20T06:31:01;44.6;33.1;56.3;;
65079;Laerm;52655;52.218;5.964;2023-07-20T06:34:02;41.3;32.1;56.8;;
65079;Laerm;52655;52.218;5.964;2023-07-20T06:37:03;39.0;32.8;50.3;;
65079;Laerm;52655;52.218;5.964;2023-07-20T06:43:05;43.3;32.9;53.2;;
65079;Laerm;52655;52.218;5.964;2023-07-20T06:46:06;42.3;34.9;54.8;;
65079;Laerm;52655;52.218;5.964;2023-07-20T06:49:07;41.7;33.6;53.3;;
65079;Laerm;52655;52.218;5.964;2023-07-20T06:52:08;43.4;33.9;58.0;;
65079;Laerm;52655;52.218;5.964;2023-07-20T06:55:09;43.5;32.6;55.9;;
65079;Laerm;52655;52.218;5.964;2023-07-20T06:58:10;44.9;33.6;57.9;;
65079;Laerm;52655;52.218;5.964;2023-07-20T07:01:11;44.1;34.2;55.1;;
65079;Laerm;52655;52.218;5.964;2023-07-20T07:04:12;41.5;33.4;60.5;;
65079;Laerm;52655;52.218;5.964;2023-07-20T07:07:13;43.3;32.5;61.0;;
65079;Laerm;52655;52.218;5.964;2023-07-20T07:10:14;42.6;35.2;57.8;;
65079;Laerm;52655;52.218;5.964;2023-07-20T07:13:15;42.8;35.4;55.2;;
65079;Laerm;52655;52.218;5.964;2023-07-20T07:16:16;43.5;32.8;57.1;;
65079;Laerm;52655;52.218;5.964;2023-07-20T07:19:18;44.8;36.3;64.5;;
65079;Laerm;52655;52.218;5.964;2023-07-20T07:22:19;40.5;33.3;53.0;;
65079;Laerm;52655;52.218;5.964;2023-07-20T07:25:20;41.9;33.1;60.0;;
65079;Laerm;52655;52.218;5.964;2023-07-20T07:28:21;41.9;35.2;52.3;;
65079;Laerm;52655;52.218;5.964;2023-07-20T07:31:22;43.1;33.6;56.3;;
65079;Laerm;52655;52.218;5.964;2023-07-20T07:34:23;41.4;33.3;58.1;;
65079;Laerm;52655;52.218;5.964;2023-07-20T07:37:24;44.4;34.1;55.7;;
65079;Laerm;52655;52.218;5.964;2023-07-20T07:43:26;42.9;35.2;60.1;;
65079;Laerm;52655;52.218;5.964;2023-07-20T07:46:27;40.8;32.6;54.4;;
65079;Laerm;52655;52.218;5.964;2023-07-20T07:49:28;44.3;33.9;59.3;;
65079;Laerm;52655;52.218;5.964;2023-07-20T07:52:29;41.3;33.1;53.9;;
65079;Laerm;52655;52.218;5.964;2023-07-20T07:55:30;42.9;33.1;52.7;;
65079;Laerm;52655;52.218;5.964;2023-07-20T07:58:31;43.3;33.6;59.5;;
65079;Laerm;52655;52.218;5.964;2023-07-20T08:01:32;41.8;34.4;51.2;;
65079;Laerm;52655;52.218;5.964;2023-07-20T08:04:33;41.8;32.8;51.1;;
65079;Laerm;52655;52.218;5.964;2023-07-20T08:07:34;44.8;34.1;62.1;;
65079;Laerm;52655;52.218;5.964;2023-07-20T08:10:35;43.0;33.8;57.6;;
65079;Laerm;52655;52.218;5.964;2023-07-20T08:13:36;41.4;33.3;55.9;;
65079;Laerm;52655;52.218;5.964;2023-07-20T08:16:37;43.1;32.9;53.0;;
65079;Laerm;52655;52.218;5.964;2023-07-20T08:19:39;38.9;32.9;53.2;;
65079;Laerm;52655;52.218;5.964;2023-07-20T08:22:39;48.6;32.8;58.4;;
65079;Laerm;52655;52.218;5.964;2023-07-20T08:25:40;43.0;33.9;52.1;;
65079;Laerm;52655;52.218;5.964;2023-07-20T08:28:42;41.5;33.7;53.4;;
65079;Laerm;52655;52.218;5.964;2023-07-20T08:31:43;41.2;33.4;52.7;;
65079;Laerm;52655;52.218;5.964;2023-07-20T08:34:44;40.7;34.2;54.1;;
65079;Laerm;52655;52.218;5.964;2023-07-20T08:37:45;41.6;34.4;53.1;;
65079;Laerm;52655;52.218;5.964;2023-07-20T08:40:46;42.5;33.8;54.8;;
65079;Laerm;52655;52.218;5.964;2023-07-20T08:43:47;44.5;34.4;68.0;;
65079;Laerm;52655;52.218;5.964;2023-07-20T08:46:48;42.5;34.3;52.5;;
65079;Laerm;52655;52.218;5.964;2023-07-20T08:49:49;40.9;33.0;51.4;;
65079;Laerm;52655;52.218;5.964;2023-07-20T08:52:50;44.9;35.2;54.8;;
65079;Laerm;52655;52.218;5.964;2023-07-20T08:55:51;42.6;31.8;59.4;;
65079;Laerm;52655;52.218;5.964;2023-07-20T08:58:52;40.4;31.6;50.6;;
65079;Laerm;52655;52.218;5.964;2023-07-20T09:01:53;41.2;33.2;52.3;;
65079;Laerm;52655;52.218;5.964;2023-07-20T09:04:54;43.2;33.7;58.0;;
65079;Laerm;52655;52.218;5.964;2023-07-20T09:07:55;43.8;32.6;64.0;;
65079;Laerm;52655;52.218;5.964;2023-07-20T09:10:56;47.9;35.7;60.4;;
65079;Laerm;52655;52.218;5.964;2023-07-20T09:14:03;44.7;33.1;55.0;;
65079;Laerm;52655;52.218;5.964;2023-07-20T09:16:58;42.6;32.9;53.6;;
65079;Laerm;52655;52.218;5.964;2023-07-20T09:19:59;46.7;31.1;63.5;;
65079;Laerm;52655;52.218;5.964;2023-07-20T09:23:03;43.1;33.3;54.8;;
65079;Laerm;52655;52.218;5.964;2023-07-20T09:26:01;42.6;34.0;55.3;;
65079;Laerm;52655;52.218;5.964;2023-07-20T09:29:07;46.8;31.8;57.2;;
65079;Laerm;52655;52.218;5.964;2023-07-20T09:32:03;42.4;32.5;53.4;;
65079;Laerm;52655;52.218;5.964;2023-07-20T09:35:05;45.1;34.7;60.7;;
65079;Laerm;52655;52.218;5.964;2023-07-20T09:38:06;45.3;34.2;55.1;;
65079;Laerm;52655;52.218;5.964;2023-07-20T09:41:07;40.7;33.0;51.9;;
65079;Laerm;52655;52.218;5.964;2023-07-20T09:44:08;42.4;33.1;53.1;;
65079;Laerm;52655;52.218;5.964;2023-07-20T09:50:11;47.1;32.6;54.9;;
65079;Laerm;52655;52.218;5.964;2023-07-20T09:53:11;43.5;34.4;53.2;;
65079;Laerm;52655;52.218;5.964;2023-07-20T09:56:12;42.7;34.1;51.7;;
65079;Laerm;52655;52.218;5.964;2023-07-20T09:59:13;45.3;33.1;58.0;;
65079;Laerm;52655;52.218;5.964;2023-07-20T10:02:15;48.8;34.5;71.4;;
65079;Laerm;52655;52.218;5.964;2023-07-20T10:05:15;43.3;32.9;52.2;;
65079;Laerm;52655;52.218;5.964;2023-07-20T10:08:16;41.1;33.1;60.1;;
65079;Laerm;52655;52.218;5.964;2023-07-20T10:11:17;41.6;32.1;50.5;;
65079;Laerm;52655;52.218;5.964;2023-07-20T10:14:19;44.3;34.5;56.0;;
65079;Laerm;52655;52.218;5.964;2023-07-20T10:17:20;41.9;32.6;54.6;;
65079;Laerm;52655;52.218;5.964;2023-07-20T10:20:20;43.8;35.2;55.2;;
65079;Laerm;52655;52.218;5.964;2023-07-20T10:23:21;46.9;34.0;69.2;;
65079;Laerm;52655;52.218;5.964;2023-07-20T10:26:22;45.0;32.9;53.8;;
65079;Laerm;52655;52.218;5.964;2023-07-20T10:29:23;41.2;31.8;53.3;;
65079;Laerm;52655;52.218;5.964;2023-07-20T10:32:24;44.0;33.8;54.4;;
65079;Laerm;52655;52.218;5.964;2023-07-20T10:35:26;40.7;32.9;53.7;;
65079;Laerm;52655;52.218;5.964;2023-07-20T10:38:42;41.6;34.2;53.0;;
65079;Laerm;52655;52.218;5.964;2023-07-20T10:41:28;42.4;33.8;51.6;;
65079;Laerm;52655;52.218;5.964;2023-07-20T10:44:29;40.7;32.3;51.6;;
65079;Laerm;52655;52.218;5.964;2023-07-20T10:47:30;42.6;34.4;54.5;;
65079;Laerm;52655;52.218;5.964;2023-07-20T10:50:31;41.5;33.4;55.1;;
65079;Laerm;52655;52.218;5.964;2023-07-20T10:53:32;45.5;36.0;57.5;;
65079;Laerm;52655;52.218;5.964;2023-07-20T10:56:33;51.9;33.5;67.3;;
65079;Laerm;52655;52.218;5.964;2023-07-20T10:59:37;46.2;35.2;60.7;;
65079;Laerm;52655;52.218;5.964;2023-07-20T11:02:41;43.3;33.5;54.1;;
65079;Laerm;52655;52.218;5.964;2023-07-20T11:05:38;43.3;33.6;62.2;;
65079;Laerm;52655;52.218;5.964;2023-07-20T11:08:40;48.0;32.1;59.3;;
65079;Laerm;52655;52.218;5.964;2023-07-20T11:14:41;42.1;33.2;57.1;;
65079;Laerm;52655;52.218;5.964;2023-07-20T11:17:40;45.3;34.2;57.5;;
65079;Laerm;52655;52.218;5.964;2023-07-20T11:20:41;44.2;34.3;62.9;;
65079;Laerm;52655;52.218;5.964;2023-07-20T11:26:44;51.1;32.8;79.0;;
65079;Laerm;52655;52.218;5.964;2023-07-20T11:29:45;44.0;33.3;55.4;;
65079;Laerm;52655;52.218;5.964;2023-07-20T11:32:47;45.5;34.7;62.4;;
65079;Laerm;52655;52.218;5.964;2023-07-20T11:35:48;41.4;34.2;52.1;;
65079;Laerm;52655;52.218;5.964;2023-07-20T11:38:47;44.5;36.3;63.0;;
65079;Laerm;52655;52.218;5.964;2023-07-20T11:41:49;44.1;32.8;56.2;;
65079;Laerm;52655;52.218;5.964;2023-07-20T11:44:51;44.7;33.8;56.0;;
65079;Laerm;52655;52.218;5.964;2023-07-20T11:47:51;41.8;33.8;53.2;;
65079;Laerm;52655;52.218;5.964;2023-07-20T11:50:52;43.4;33.2;64.8;;
65079;Laerm;52655;52.218;5.964;2023-07-20T11:53:53;43.2;34.1;54.8;;
65079;Laerm;52655;52.218;5.964;2023-07-20T11:56:54;42.6;34.0;58.2;;
65079;Laerm;52655;52.218;5.964;2023-07-20T11:59:55;44.6;35.4;55.1;;
65079;Laerm;52655;52.218;5.964;2023-07-20T12:02:56;43.4;33.4;56.0;;
65079;Laerm;52655;52.218;5.964;2023-07-20T12:06:05;41.3;33.8;52.9;;
65079;Laerm;52655;52.218;5.964;2023-07-20T12:08:58;40.4;33.9;52.7;;
65079;Laerm;52655;52.218;5.964;2023-07-20T12:11:59;42.5;34.2;54.8;;
65079;Laerm;52655;52.218;5.964;2023-07-20T12:15:11;40.2;33.1;52.0;;
65079;Laerm;52655;52.218;5.964;2023-07-20T12:18:02;41.8;33.1;54.6;;
65079;Laerm;52655;52.218;5.964;2023-07-20T12:21:02;40.2;33.4;51.2;;
65079;Laerm;52655;52.218;5.964;2023-07-20T12:24:04;40.3;32.6;53.5;;
65079;Laerm;52655;52.218;5.964;2023-07-20T12:27:04;42.6;32.7;52.7;;
65079;Laerm;52655;52.218;5.964;2023-07-20T12:30:06;40.8;31.6;53.0;;
65079;Laerm;52655;52.218;5.964;2023-07-20T12:33:07;42.8;32.6;55.4;;
65079;Laerm;52655;52.218;5.964;2023-07-20T12:36:08;42.0;32.4;56.1;;
65079;Laerm;52655;52.218;5.964;2023-07-20T12:39:08;44.0;35.6;55.1;;
65079;Laerm;52655;52.218;5.964;2023-07-20T12:42:09;41.2;32.7;52.7;;
65079;Laerm;52655;52.218;5.964;2023-07-20T12:45:10;43.3;33.9;64.7;;
65079;Laerm;52655;52.218;5.964;2023-07-20T12:48:12;48.4;35.8;55.6;;
65079;Laerm;52655;52.218;5.964;2023-07-20T12:51:13;44.2;34.6;52.7;;
65079;Laerm;52655;52.218;5.964;2023-07-20T12:54:14;49.0;40.1;54.4;;
65079;Laerm;52655;52.218;5.964;2023-07-20T12:59:10;49.2;35.1;56.2;;
65079;Laerm;52655;52.218;5.964;2023-07-20T13:02:11;48.9;36.0;65.5;;
65079;Laerm;52655;52.218;5.964;2023-07-20T13:05:12;42.3;33.1;62.7;;
65079;Laerm;52655;52.218;5.964;2023-07-20T13:08:13;43.4;32.8;51.5;;
65079;Laerm;52655;52.218;5.964;2023-07-20T13:11:14;43.2;33.1;52.6;;
65079;Laerm;52655;52.218;5.964;2023-07-20T13:14:15;42.8;34.4;59.8;;
65079;Laerm;52655;52.218;5.964;2023-07-20T13:17:16;44.5;34.8;54.9;;
65079;Laerm;52655;52.218;5.964;2023-07-20T13:20:17;42.7;35.4;53.5;;
65079;Laerm;52655;52.218;5.964;2023-07-20T13:23:19;41.1;34.1;52.1;;
65079;Laerm;52655;52.218;5.964;2023-07-20T13:26:19;42.8;34.0;56.9;;
65079;Laerm;52655;52.218;5.964;2023-07-20T13:29:21;42.2;35.8;58.6;;
65079;Laerm;52655;52.218;5.964;2023-07-20T13:32:22;43.8;35.9;57.9;;
65079;Laerm;52655;52.218;5.964;2023-07-20T13:35:23;41.5;35.5;52.0;;
65079;Laerm;52655;52.218;5.964;2023-07-20T13:38:24;40.7;35.2;51.8;;
65079;Laerm;52655;52.218;5.964;2023-07-20T13:41:25;41.7;34.0;52.7;;
65079;Laerm;52655;52.218;5.964;2023-07-20T13:44:26;47.1;34.0;60.7;;
65079;Laerm;52655;52.218;5.964;2023-07-20T13:47:27;44.0;33.1;62.0;;
65079;Laerm;52655;52.218;5.964;2023-07-20T13:50:28;40.7;34.4;51.9;;
65079;Laerm;52655;52.218;5.964;2023-07-20T13:53:29;42.3;32.9;55.8;;
65079;Laerm;52655;52.218;5.964;2023-07-20T13:56:30;43.2;34.1;53.0;;
65079;Laerm;52655;52.218;5.964;2023-07-20T13:59:31;40.7;33.5;51.6;;
65079;Laerm;52655;52.218;5.964;2023-07-20T14:02:32;42.8;33.6;52.9;;
65079;Laerm;52655;52.218;5.964;2023-07-20T14:05:33;42.5;33.9;53.1;;
65079;Laerm;52655;52.218;5.964;2023-07-20T14:08:34;42.4;34.2;53.3;;
65079;Laerm;52655;52.218;5.964;2023-07-20T14:11:35;43.2;34.9;53.2;;
65079;Laerm;52655;52.218;5.964;2023-07-20T14:14:36;46.4;33.9;64.0;;
65079;Laerm;52655;52.218;5.964;2023-07-20T14:17:37;44.1;33.5;65.3;;
65079;Laerm;52655;52.218;5.964;2023-07-20T14:20:38;45.6;36.5;58.1;;
65079;Laerm;52655;52.218;5.964;2023-07-20T14:23:39;45.0;39.1;55.4;;
65079;Laerm;52655;52.218;5.964;2023-07-20T14:26:40;41.8;34.3;55.9;;
65079;Laerm;52655;52.218;5.964;2023-07-20T14:29:42;42.5;33.8;53.9;;
65079;Laerm;52655;52.218;5.964;2023-07-20T14:32:43;42.2;34.7;56.7;;
65079;Laerm;52655;52.218;5.964;2023-07-20T14:35:44;42.1;32.5;57.0;;
65079;Laerm;52655;52.218;5.964;2023-07-20T14:38:45;43.5;33.1;51.0;;
65079;Laerm;52655;52.218;5.964;2023-07-20T14:41:46;44.7;35.5;64.4;;
65079;Laerm;52655;52.218;5.964;2023-07-20T14:44:47;40.0;32.9;56.0;;
65079;Laerm;52655;52.218;5.964;2023-07-20T14:47:48;43.3;33.9;57.9;;
65079;Laerm;52655;52.218;5.964;2023-07-20T14:50:49;46.1;36.2;64.8;;
65079;Laerm;52655;52.218;5.964;2023-07-20T14:53:50;44.3;33.5;55.0;;
65079;Laerm;52655;52.218;5.964;2023-07-20T14:56:51;38.2;32.1;49.8;;
65079;Laerm;52655;52.218;5.964;2023-07-20T14:59:52;43.5;32.1;53.8;;
65079;Laerm;52655;52.218;5.964;2023-07-20T15:02:53;42.0;33.4;51.9;;
65079;Laerm;52655;52.218;5.964;2023-07-20T15:05:54;46.3;33.6;62.6;;
65079;Laerm;52655;52.218;5.964;2023-07-20T15:08:55;42.8;34.0;54.3;;
65079;Laerm;52655;52.218;5.964;2023-07-20T15:11:56;44.1;31.8;54.4;;
65079;Laerm;52655;52.218;5.964;2023-07-20T15:15:04;44.9;33.9;61.4;;
65079;Laerm;52655;52.218;5.964;2023-07-20T15:17:58;42.3;32.9;57.4;;
65079;Laerm;52655;52.218;5.964;2023-07-20T15:20:59;51.7;33.6;68.0;;
65079;Laerm;52655;52.218;5.964;2023-07-20T15:24:00;45.9;33.0;61.0;;
65079;Laerm;52655;52.218;5.964;2023-07-20T15:27:01;43.0;32.2;57.8;;
65079;Laerm;52655;52.218;5.964;2023-07-20T15:30:03;42.9;34.5;50.4;;
65079;Laerm;52655;52.218;5.964;2023-07-20T15:33:03;42.1;34.4;52.1;;
65079;Laerm;52655;52.218;5.964;2023-07-20T15:36:05;40.5;33.4;49.4;;
65079;Laerm;52655;52.218;5.964;2023-07-20T15:39:06;41.6;33.1;55.7;;
65079;Laerm;52655;52.218;5.964;2023-07-20T15:42:07;41.2;33.1;53.2;;
65079;Laerm;52655;52.218;5.964;2023-07-20T15:45:08;43.6;35.7;53.6;;
65079;Laerm;52655;52.218;5.964;2023-07-20T15:48:09;42.3;33.8;55.1;;
65079;Laerm;52655;52.218;5.964;2023-07-20T15:51:10;42.3;34.7;55.5;;
65079;Laerm;52655;52.218;5.964;2023-07-20T15:54:11;41.3;34.7;48.9;;
65079;Laerm;52655;52.218;5.964;2023-07-20T15:57:12;49.2;33.0;71.3;;
65079;Laerm;52655;52.218;5.964;2023-07-20T16:00:13;42.3;32.3;50.9;;
65079;Laerm;52655;52.218;5.964;2023-07-20T16:03:14;45.4;36.8;59.6;;
65079;Laerm;52655;52.218;5.964;2023-07-20T16:06:15;49.4;33.5;61.5;;
65079;Laerm;52655;52.218;5.964;2023-07-20T16:09:16;46.4;35.6;58.6;;
65079;Laerm;52655;52.218;5.964;2023-07-20T16:12:17;46.0;36.1;56.3;;
65079;Laerm;52655;52.218;5.964;2023-07-20T16:15:18;48.4;31.8;59.5;;
65079;Laerm;52655;52.218;5.964;2023-07-20T16:18:19;41.6;31.8;51.0;;
65079;Laerm;52655;52.218;5.964;2023-07-20T16:21:20;42.2;34.0;51.8;;
65079;Laerm;52655;52.218;5.964;2023-07-20T16:24:21;42.3;35.9;49.8;;
65079;Laerm;52655;52.218;5.964;2023-07-20T16:27:22;39.6;33.9;50.4;;
65079;Laerm;52655;52.218;5.964;2023-07-20T16:30:23;41.6;34.1;53.6;;
65079;Laerm;52655;52.218;5.964;2023-07-20T16:33:24;46.5;33.4;57.9;;
65079;Laerm;52655;52.218;5.964;2023-07-20T16:36:25;40.4;32.3;49.6;;
65079;Laerm;52655;52.218;5.964;2023-07-20T16:39:26;40.0;32.2;50.3;;
65079;Laerm;52655;52.218;5.964;2023-07-20T16:42:28;43.5;32.1;57.9;;
65079;Laerm;52655;52.218;5.964;2023-07-20T16:45:29;46.1;32.8;63.0;;
65079;Laerm;52655;52.218;5.964;2023-07-20T16:48:30;41.2;32.1;51.3;;
65079;Laerm;52655;52.218;5.964;2023-07-20T16:51:31;44.4;33.2;57.3;;
65079;Laerm;52655;52.218;5.964;2023-07-20T16:54:32;43.2;34.6;54.1;;
65079;Laerm;52655;52.218;5.964;2023-07-20T16:57:33;39.9;31.9;51.8;;
65079;Laerm;52655;52.218;5.964;2023-07-20T17:00:34;41.9;34.1;51.5;;
65079;Laerm;52655;52.218;5.964;2023-07-20T17:03:35;41.3;32.9;54.3;;
65079;Laerm;52655;52.218;5.964;2023-07-20T17:09:37;47.1;33.3;55.2;;
65079;Laerm;52655;52.218;5.964;2023-07-20T17:12:38;41.8;32.2;57.0;;
65079;Laerm;52655;52.218;5.964;2023-07-20T17:15:39;44.3;34.0;60.1;;
65079;Laerm;52655;52.218;5.964;2023-07-20T17:18:40;42.8;33.6;60.8;;
65079;Laerm;52655;52.218;5.964;2023-07-20T17:21:41;43.5;31.6;64.7;;
65079;Laerm;52655;52.218;5.964;2023-07-20T17:24:42;41.8;31.8;51.3;;
65079;Laerm;52655;52.218;5.964;2023-07-20T17:30:44;41.8;33.1;62.5;;
65079;Laerm;52655;52.218;5.964;2023-07-20T17:33:45;44.0;32.8;66.9;;
65079;Laerm;52655;52.218;5.964;2023-07-20T17:36:46;42.0;32.4;56.3;;
65079;Laerm;52655;52.218;5.964;2023-07-20T17:39:49;46.1;32.5;64.7;;
65079;Laerm;52655;52.218;5.964;2023-07-20T17:42:48;43.3;32.1;61.7;;
65079;Laerm;52655;52.218;5.964;2023-07-20T17:45:49;41.1;31.6;53.2;;
65079;Laerm;52655;52.218;5.964;2023-07-20T17:48:51;41.1;31.8;53.1;;
65079;Laerm;52655;52.218;5.964;2023-07-20T17:51:52;41.8;32.4;52.4;;
65079;Laerm;52655;52.218;5.964;2023-07-20T17:54:53;45.1;34.0;58.7;;
65079;Laerm;52655;52.218;5.964;2023-07-20T17:57:54;42.6;31.4;59.6;;
65079;Laerm;52655;52.218;5.964;2023-07-20T18:00:57;40.0;31.2;54.1;;
65079;Laerm;52655;52.218;5.964;2023-07-20T18:03:56;41.3;32.1;53.8;;
65079;Laerm;52655;52.218;5.964;2023-07-20T18:06:57;41.9;32.7;52.0;;
65079;Laerm;52655;52.218;5.964;2023-07-20T18:09:58;41.0;32.4;54.8;;
65079;Laerm;52655;52.218;5.964;2023-07-20T18:12:59;40.9;32.2;52.5;;
65079;Laerm;52655;52.218;5.964;2023-07-20T18:16:00;41.2;31.8;56.2;;